Time;durP1;ratioP1;P1;durP2;ratioP2;P2;SDS_P1;SDS_P2;PMS_P1;PMS_P2;Temp;Humidity;BMP_temperature;BMP_pressure;BME280_temperature;BME280_humidity;BME280_pressure;Samples;Min_cycle;Max_cycle;Signal;HPM_P1;HPM_P2
2022/07/10 00:00:12;;;;;;;11.93;1.65;;;;;;;;;;5025733;28;20088;-73
2022/07/10 00:02:39;;;;;;;3.22;1.20;;;;;;;;;;5027271;28;20017;-73
2022/07/10 00:05:06;;;;;;;5.28;1.30;;;;;;;;;;5027519;28;20513;-73
2022/07/10 00:07:32;;;;;;;4.82;1.30;;;;;;;;;;5027160;28;20045;-73
2022/07/10 00:09:58;;;;;;;9.93;1.92;;;;;;;;;;5027216;28;20025;-73
2022/07/10 00:12:25;;;;;;;6.43;1.17;;;;;;;;;;5025638;28;20017;-73
2022/07/10 00:14:51;;;;;;;2.70;1.10;;;;;;;;;;5027236;28;20033;-72
2022/07/10 00:17:17;;;;;;;3.30;1.15;;;;;;;;;;5027207;28;20096;-73
2022/07/10 00:19:44;;;;;;;2.10;1.15;;;;;;;;;;5027222;28;20067;-73
2022/07/10 00:22:10;;;;;;;1.00;0.90;;;;;;;;;;5027012;28;20595;-73
2022/07/10 00:24:36;;;;;;;3.95;1.45;;;;;;;;;;5025815;28;20032;-74
2022/07/10 00:27:02;;;;;;;3.15;1.10;;;;;;;;;;5027133;28;20025;-72
2022/07/10 00:29:29;;;;;;;3.85;1.40;;;;;;;;;;5027051;28;20378;-73
2022/07/10 00:31:55;;;;;;;7.80;1.70;;;;;;;;;;5027230;28;20021;-73
2022/07/10 00:34:21;;;;;;;1.75;1.10;;;;;;;;;;5026687;28;20176;-72
2022/07/10 00:36:47;;;;;;;3.78;1.23;;;;;;;;;;5025513;28;20045;-72
2022/07/10 00:39:13;;;;;;;1.63;1.05;;;;;;;;;;5025769;28;20081;-73
2022/07/10 00:41:39;;;;;;;2.58;1.20;;;;;;;;;;5026856;28;20025;-73
2022/07/10 00:44:05;;;;;;;3.42;1.17;;;;;;;;;;5026869;28;20021;-72
2022/07/10 00:46:32;;;;;;;2.30;1.30;;;;;;;;;;5025347;28;20335;-73
2022/07/10 00:48:58;;;;;;;4.45;1.20;;;;;;;;;;5026866;28;20014;-72
2022/07/10 00:51:25;;;;;;;2.30;1.20;;;;;;;;;;5026783;28;20025;-72
2022/07/10 00:53:52;;;;;;;3.95;1.38;;;;;;;;;;5026536;28;20030;-72
2022/07/10 00:56:23;;;;;;;5.22;1.35;;;;;;;;;;5029669;28;20029;-72
2022/07/10 00:58:49;;;;;;;1.60;1.20;;;;;;;;;;5030580;28;20025;-73
2022/07/10 01:01:16;;;;;;;1.52;1.10;;;;;;;;;;5029084;28;20084;-72
2022/07/10 01:03:43;;;;;;;5.30;1.20;;;;;;;;;;5030075;28;20022;-73
2022/07/10 01:06:10;;;;;;;3.10;1.27;;;;;;;;;;5030563;28;20026;-73
2022/07/10 01:08:36;;;;;;;4.65;1.45;;;;;;;;;;5030361;28;20060;-72
2022/07/10 01:11:02;;;;;;;2.15;1.10;;;;;;;;;;5028991;28;20075;-73
2022/07/10 01:13:29;;;;;;;2.53;0.90;;;;;;;;;;5029971;28;20028;-73
2022/07/10 01:15:55;;;;;;;3.13;1.30;;;;;;;;;;5029998;28;20245;-72
2022/07/10 01:18:22;;;;;;;2.30;1.00;;;;;;;;;;5030483;28;20022;-72
2022/07/10 01:20:54;;;;;;;1.45;1.20;;;;;;;;;;5030034;28;20031;-72
2022/07/10 01:23:21;;;;;;;6.57;1.63;;;;;;;;;;5028582;28;20121;-72
2022/07/10 01:25:48;;;;;;;3.53;1.30;;;;;;;;;;5029933;28;20040;-73
2022/07/10 01:28:14;;;;;;;2.50;1.10;;;;;;;;;;5029796;28;20068;-72
2022/07/10 01:30:41;;;;;;;2.47;1.10;;;;;;;;;;5028615;28;20509;-73
2022/07/10 01:33:07;;;;;;;10.02;2.05;;;;;;;;;;5030468;28;20053;-73
2022/07/10 01:35:33;;;;;;;2.15;1.20;;;;;;;;;;5029799;28;20033;-73
2022/07/10 01:37:59;;;;;;;1.38;1.17;;;;;;;;;;5029759;28;20018;-72
2022/07/10 01:40:25;;;;;;;3.03;1.30;;;;;;;;;;5030028;28;20025;-72
2022/07/10 01:42:51;;;;;;;2.78;1.27;;;;;;;;;;5025163;28;20025;-73
2022/07/10 01:45:18;;;;;;;1.98;1.00;;;;;;;;;;5027376;28;20024;-73
2022/07/10 01:47:45;;;;;;;3.55;1.15;;;;;;;;;;5027241;28;20030;-72
2022/07/10 01:50:11;;;;;;;3.35;1.50;;;;;;;;;;5024375;28;20075;-72
2022/07/10 01:52:37;;;;;;;2.47;1.10;;;;;;;;;;5025808;28;20030;-73
2022/07/10 01:55:04;;;;;;;4.50;1.58;;;;;;;;;;5021696;28;20041;-72
2022/07/10 01:57:30;;;;;;;2.50;1.45;;;;;;;;;;5015830;28;20025;-72
2022/07/10 01:59:56;;;;;;;3.00;1.50;;;;;;;;;;5016702;28;20053;-73
2022/07/10 02:02:22;;;;;;;3.22;1.40;;;;;;;;;;5028428;28;20222;-73
2022/07/10 02:04:48;;;;;;;3.42;1.33;;;;;;;;;;5029216;28;20021;-72
2022/07/10 02:07:15;;;;;;;2.85;1.50;;;;;;;;;;5026457;28;20488;-72
2022/07/10 02:09:42;;;;;;;5.03;1.55;;;;;;;;;;5017101;28;20049;-73
2022/07/10 02:12:13;;;;;;;3.33;1.38;;;;;;;;;;5028969;28;20500;-73
2022/07/10 02:14:40;;;;;;;3.22;1.77;;;;;;;;;;5029153;28;20110;-73
2022/07/10 02:17:06;;;;;;;3.88;1.55;;;;;;;;;;5027786;28;20034;-72
2022/07/10 02:19:32;;;;;;;5.00;1.40;;;;;;;;;;5029109;28;20026;-73
2022/07/10 02:21:59;;;;;;;4.47;1.38;;;;;;;;;;5029436;28;20088;-73
2022/07/10 02:24:25;;;;;;;4.43;1.20;;;;;;;;;;5025064;28;20056;-73
2022/07/10 02:26:51;;;;;;;5.60;1.27;;;;;;;;;;5018736;28;20378;-73
2022/07/10 02:29:18;;;;;;;5.20;1.45;;;;;;;;;;5029242;28;20033;-72
2022/07/10 02:31:44;;;;;;;10.25;2.60;;;;;;;;;;5027760;28;20029;-72
2022/07/10 02:34:11;;;;;;;5.03;1.90;;;;;;;;;;5028628;28;20529;-72
2022/07/10 02:36:38;;;;;;;2.88;1.40;;;;;;;;;;5028787;28;20026;-73
2022/07/10 02:39:04;;;;;;;2.92;1.50;;;;;;;;;;5028659;28;20136;-70
2022/07/10 02:41:30;;;;;;;6.35;1.88;;;;;;;;;;5022055;28;20021;-73
2022/07/10 02:43:57;;;;;;;8.10;1.98;;;;;;;;;;5022475;28;20042;-73
2022/07/10 02:46:23;;;;;;;5.22;1.95;;;;;;;;;;5016265;28;20022;-73
2022/07/10 02:48:49;;;;;;;4.43;1.77;;;;;;;;;;5024410;28;20052;-76
2022/07/10 02:51:15;;;;;;;2.45;1.60;;;;;;;;;;5023709;28;20057;-73
2022/07/10 02:53:41;;;;;;;4.45;1.85;;;;;;;;;;5023472;28;20056;-75
2022/07/10 02:56:11;;;;;;;2.45;1.55;;;;;;;;;;5023832;28;20030;-77
2022/07/10 02:58:39;;;;;;;4.72;1.58;;;;;;;;;;5019609;28;20021;-74
2022/07/10 03:01:08;;;;;;;4.30;1.77;;;;;;;;;;5013252;28;20136;-74
2022/07/10 03:03:35;;;;;;;5.95;1.60;;;;;;;;;;5023484;28;20037;-74
2022/07/10 03:06:01;;;;;;;7.80;1.73;;;;;;;;;;5022286;28;20056;-76
2022/07/10 03:08:27;;;;;;;3.15;1.40;;;;;;;;;;5021611;28;20026;-75
2022/07/10 03:10:54;;;;;;;5.53;1.42;;;;;;;;;;5022473;28;20277;-75
2022/07/10 03:13:20;;;;;;;6.43;2.05;;;;;;;;;;5022068;28;20544;-74
2022/07/10 03:15:47;;;;;;;3.70;1.55;;;;;;;;;;5023644;28;20083;-75
2022/07/10 03:18:13;;;;;;;4.35;1.40;;;;;;;;;;5021462;28;20043;-76
2022/07/10 03:20:39;;;;;;;3.00;1.50;;;;;;;;;;5023408;28;20030;-73
2022/07/10 03:23:06;;;;;;;3.95;1.52;;;;;;;;;;5023314;28;20465;-75
2022/07/10 03:25:32;;;;;;;3.00;1.50;;;;;;;;;;5023108;28;20036;-74
2022/07/10 03:27:58;;;;;;;2.28;1.63;;;;;;;;;;5022070;28;20041;-74
2022/07/10 03:30:24;;;;;;;3.95;1.65;;;;;;;;;;5023034;28;20128;-74
2022/07/10 03:32:51;;;;;;;2.17;1.63;;;;;;;;;;5023185;28;20021;-73
2022/07/10 03:35:17;;;;;;;4.20;1.60;;;;;;;;;;5022843;28;20056;-74
2022/07/10 03:37:43;;;;;;;3.42;1.33;;;;;;;;;;5021927;28;20022;-75
2022/07/10 03:40:09;;;;;;;3.80;1.35;;;;;;;;;;5023207;28;20025;-72
2022/07/10 03:42:36;;;;;;;4.82;1.60;;;;;;;;;;5023005;28;20108;-74
2022/07/10 03:45:02;;;;;;;2.45;1.20;;;;;;;;;;5023548;28;20553;-74
2022/07/10 03:47:28;;;;;;;3.80;1.40;;;;;;;;;;5020215;28;20029;-74
2022/07/10 03:49:54;;;;;;;2.95;1.92;;;;;;;;;;5022577;28;20033;-74
2022/07/10 03:52:20;;;;;;;4.25;1.50;;;;;;;;;;5023076;28;20033;-73
2022/07/10 03:54:46;;;;;;;4.20;1.77;;;;;;;;;;5022568;28;20184;-74
2022/07/10 03:59:58;;;;;;;7.05;1.67;;;;;;;;;;5022438;28;20536;-75
2022/07/10 04:02:24;;;;;;;5.75;1.75;;;;;;;;;;5021403;28;20034;-74
2022/07/10 04:04:50;;;;;;;5.45;1.52;;;;;;;;;;5021245;28;20029;-73
2022/07/10 04:07:16;;;;;;;4.35;1.48;;;;;;;;;;5021054;28;20040;-72
2022/07/10 04:09:42;;;;;;;5.00;1.52;;;;;;;;;;5022618;28;20032;-72
2022/07/10 04:12:09;;;;;;;3.20;1.52;;;;;;;;;;5022418;28;20064;-73
2022/07/10 04:14:35;;;;;;;6.90;1.50;;;;;;;;;;5021364;28;20041;-73
2022/07/10 04:17:01;;;;;;;4.35;1.35;;;;;;;;;;5022338;28;20037;-75
2022/07/10 04:19:27;;;;;;;3.72;1.50;;;;;;;;;;5022847;28;20066;-74
2022/07/10 04:21:53;;;;;;;2.65;1.15;;;;;;;;;;5023182;28;20025;-73
2022/07/10 04:24:20;;;;;;;2.85;1.40;;;;;;;;;;5022596;28;20013;-73
2022/07/10 04:26:46;;;;;;;3.00;1.13;;;;;;;;;;5020963;28;20035;-73
2022/07/10 04:29:12;;;;;;;3.92;1.10;;;;;;;;;;5022251;28;20025;-74
2022/07/10 04:31:38;;;;;;;2.28;1.17;;;;;;;;;;5026456;28;20152;-74
2022/07/10 04:34:05;;;;;;;4.07;1.60;;;;;;;;;;5025969;28;20094;-77
2022/07/10 04:36:31;;;;;;;2.55;1.08;;;;;;;;;;5025964;28;20053;-75
2022/07/10 04:38:57;;;;;;;4.15;1.30;;;;;;;;;;5026289;28;20017;-73
2022/07/10 04:41:23;;;;;;;1.95;1.00;;;;;;;;;;5026231;28;20029;-75
2022/07/10 04:43:49;;;;;;;2.33;1.17;;;;;;;;;;5026422;28;20025;-73
2022/07/10 04:46:16;;;;;;;4.38;1.25;;;;;;;;;;5025953;28;20029;-73
2022/07/10 04:48:42;;;;;;;2.13;1.05;;;;;;;;;;5024854;28;20029;-74
2022/07/10 04:51:08;;;;;;;3.78;1.10;;;;;;;;;;5026240;28;20038;-76
2022/07/10 04:53:35;;;;;;;2.55;1.00;;;;;;;;;;5026130;28;20029;-75
2022/07/10 04:56:02;;;;;;;2.80;0.90;;;;;;;;;;5024519;28;20037;-75
2022/07/10 04:58:28;;;;;;;4.35;0.98;;;;;;;;;;5026215;28;20025;-74
2022/07/10 05:00:55;;;;;;;16.42;1.10;;;;;;;;;;5024780;28;20482;-73
2022/07/10 05:03:21;;;;;;;2.65;1.10;;;;;;;;;;5025096;28;20029;-74
2022/07/10 05:05:47;;;;;;;2.90;1.00;;;;;;;;;;5023483;28;20100;-73
2022/07/10 05:08:14;;;;;;;0.95;0.85;;;;;;;;;;5022708;28;20030;-76
2022/07/10 05:10:43;;;;;;;1.98;1.00;;;;;;;;;;5013326;28;20034;-75
2022/07/10 05:13:11;;;;;;;2.58;0.90;;;;;;;;;;5004237;28;20054;-76
2022/07/10 05:15:37;;;;;;;3.00;1.17;;;;;;;;;;5021342;28;20037;-73
2022/07/10 05:18:04;;;;;;;1.95;1.00;;;;;;;;;;5021193;28;20025;-74
2022/07/10 05:20:35;;;;;;;1.92;0.80;;;;;;;;;;5021287;28;20030;-74
2022/07/10 05:23:01;;;;;;;3.90;1.08;;;;;;;;;;5020246;28;20660;-74
2022/07/10 05:25:30;;;;;;;3.33;0.95;;;;;;;;;;5020920;28;20030;-73
2022/07/10 05:27:57;;;;;;;4.30;1.40;;;;;;;;;;5021318;28;20061;-73
2022/07/10 05:30:23;;;;;;;1.98;1.10;;;;;;;;;;5021275;28;20485;-75
2022/07/10 05:32:49;;;;;;;5.13;1.10;;;;;;;;;;5012527;28;20100;-74
2022/07/10 05:35:16;;;;;;;1.77;0.90;;;;;;;;;;5006589;28;20164;-73
2022/07/10 05:37:42;;;;;;;5.07;1.20;;;;;;;;;;5007724;28;20520;-73
2022/07/10 05:40:08;;;;;;;1.80;1.20;;;;;;;;;;5019265;28;20064;-74
2022/07/10 05:42:35;;;;;;;1.33;0.90;;;;;;;;;;5016434;28;20191;-73
2022/07/10 05:45:01;;;;;;;2.33;0.98;;;;;;;;;;5019556;28;20544;-74
2022/07/10 05:47:27;;;;;;;2.03;1.02;;;;;;;;;;5020990;28;20045;-73
2022/07/10 05:49:53;;;;;;;3.28;1.30;;;;;;;;;;5020111;28;20022;-73
2022/07/10 05:52:19;;;;;;;2.75;1.20;;;;;;;;;;5019763;28;20025;-74
2022/07/10 05:54:45;;;;;;;3.78;1.42;;;;;;;;;;5017089;28;20737;-73
2022/07/10 05:57:11;;;;;;;7.47;1.40;;;;;;;;;;5020433;28;20032;-73
2022/07/10 05:59:37;;;;;;;2.33;1.10;;;;;;;;;;4968811;28;1508883;-74
2022/07/10 06:02:04;;;;;;;2.45;1.00;;;;;;;;;;5021950;28;20030;-74
2022/07/10 06:04:30;;;;;;;4.45;1.10;;;;;;;;;;5021610;28;20044;-74
2022/07/10 06:06:56;;;;;;;3.90;1.17;;;;;;;;;;5019789;28;20021;-73
2022/07/10 06:09:23;;;;;;;4.95;1.13;;;;;;;;;;5019962;28;20029;-73
2022/07/10 06:11:49;;;;;;;3.92;1.10;;;;;;;;;;5021694;28;20394;-74
2022/07/10 06:14:15;;;;;;;6.10;1.45;;;;;;;;;;5021829;28;20430;-74
2022/07/10 06:16:41;;;;;;;1.30;0.90;;;;;;;;;;5021501;28;20628;-73
2022/07/10 06:19:07;;;;;;;3.35;1.30;;;;;;;;;;5019940;28;20490;-73
2022/07/10 06:21:33;;;;;;;1.63;0.95;;;;;;;;;;5021405;28;20042;-74
2022/07/10 06:23:59;;;;;;;3.65;1.50;;;;;;;;;;5021678;28;20025;-73
2022/07/10 06:26:26;;;;;;;2.25;1.00;;;;;;;;;;5021380;28;20027;-73
2022/07/10 06:28:52;;;;;;;4.07;1.25;;;;;;;;;;5018574;28;20041;-73
2022/07/10 06:31:18;;;;;;;2.60;1.13;;;;;;;;;;5021411;28;20022;-73
2022/07/10 06:33:44;;;;;;;3.33;1.20;;;;;;;;;;5020947;28;20604;-74
2022/07/10 06:36:12;;;;;;;2.03;1.00;;;;;;;;;;5021266;28;20033;-73
2022/07/10 06:38:38;;;;;;;1.98;0.95;;;;;;;;;;5021048;28;20021;-73
2022/07/10 06:41:04;;;;;;;2.03;1.08;;;;;;;;;;5019488;28;20031;-73
2022/07/10 06:43:30;;;;;;;2.53;1.23;;;;;;;;;;5021664;28;20021;-74
2022/07/10 06:45:57;;;;;;;3.40;1.27;;;;;;;;;;5020943;28;20147;-73
2022/07/10 06:48:23;;;;;;;2.13;1.20;;;;;;;;;;5019555;28;20037;-73
2022/07/10 06:50:49;;;;;;;3.13;1.30;;;;;;;;;;5020858;28;20065;-74
2022/07/10 06:53:15;;;;;;;3.70;1.40;;;;;;;;;;5019549;28;20028;-75
2022/07/10 06:55:42;;;;;;;3.08;1.38;;;;;;;;;;5020707;28;20152;-74
2022/07/10 06:58:08;;;;;;;3.05;1.15;;;;;;;;;;5019530;28;20030;-74
2022/07/10 07:00:35;;;;;;;2.60;1.00;;;;;;;;;;5021167;28;20057;-74
2022/07/10 07:03:01;;;;;;;1.90;1.00;;;;;;;;;;5019172;28;20024;-74
2022/07/10 07:05:27;;;;;;;3.33;1.40;;;;;;;;;;5019981;28;20029;-74
2022/07/10 07:07:53;;;;;;;3.25;1.08;;;;;;;;;;5018411;28;20030;-74
2022/07/10 07:10:19;;;;;;;1.13;0.90;;;;;;;;;;5006552;28;20044;-74
2022/07/10 07:12:45;;;;;;;1.65;0.82;;;;;;;;;;5003477;28;20022;-74
2022/07/10 07:15:12;;;;;;;2.67;1.30;;;;;;;;;;5010104;28;20038;-76
2022/07/10 07:17:56;;;;;;;1.60;0.90;;;;;;;;;;4998716;28;20068;-74
2022/07/10 07:23:09;;;;;;;2.58;1.10;;;;;;;;;;5004258;28;20064;-74
2022/07/10 07:25:36;;;;;;;1.52;0.90;;;;;;;;;;4994451;28;20315;-75
2022/07/10 07:28:02;;;;;;;2.40;1.10;;;;;;;;;;4995601;28;20631;-74
2022/07/10 07:30:28;;;;;;;6.60;1.23;;;;;;;;;;4999834;28;20042;-74
2022/07/10 07:32:55;;;;;;;2.53;1.13;;;;;;;;;;4989380;28;20088;-74
2022/07/10 07:35:21;;;;;;;3.40;1.00;;;;;;;;;;4995752;28;20087;-74
2022/07/10 07:37:48;;;;;;;2.83;0.90;;;;;;;;;;5001721;28;20030;-74
2022/07/10 07:40:20;;;;;;;3.22;1.08;;;;;;;;;;5002909;28;20514;-74
2022/07/10 07:42:47;;;;;;;3.05;1.08;;;;;;;;;;4998151;28;20030;-74
2022/07/10 07:45:13;;;;;;;3.38;1.13;;;;;;;;;;5007802;28;20034;-75
2022/07/10 07:47:51;;;;;;;1.77;1.05;;;;;;;;;;5000138;28;20041;-74
2022/07/10 07:50:21;;;;;;;2.33;1.13;;;;;;;;;;5002107;28;20433;-75
2022/07/10 07:52:48;;;;;;;6.13;1.40;;;;;;;;;;5001218;28;20038;-74
2022/07/10 07:55:15;;;;;;;4.35;1.75;;;;;;;;;;5000097;28;20045;-74
2022/07/10 07:57:41;;;;;;;2.80;1.10;;;;;;;;;;4996565;28;20087;-75
2022/07/10 08:00:08;;;;;;;2.80;0.93;;;;;;;;;;4999876;28;20604;-74
2022/07/10 08:02:35;;;;;;;4.55;1.38;;;;;;;;;;4997733;28;20026;-75
2022/07/10 08:05:01;;;;;;;2.90;1.20;;;;;;;;;;5001282;28;20490;-74
2022/07/10 08:07:41;;;;;;;3.28;1.27;;;;;;;;;;5001018;28;20026;-75
2022/07/10 08:10:12;;;;;;;3.42;1.25;;;;;;;;;;5001120;28;20030;-74
2022/07/10 08:12:39;;;;;;;2.88;1.08;;;;;;;;;;4999685;28;20033;-75
2022/07/10 08:15:07;;;;;;;1.23;0.85;;;;;;;;;;5001628;28;20030;-75
2022/07/10 08:17:33;;;;;;;3.35;1.13;;;;;;;;;;4998533;28;20018;-75
2022/07/10 08:19:59;;;;;;;2.55;1.35;;;;;;;;;;5002131;28;20026;-75
2022/07/10 08:22:25;;;;;;;5.65;1.58;;;;;;;;;;5001551;28;20031;-75
2022/07/10 08:24:52;;;;;;;1.35;0.77;;;;;;;;;;5000459;28;20115;-75
2022/07/10 08:27:18;;;;;;;3.20;1.10;;;;;;;;;;5001225;28;20103;-75
2022/07/10 08:29:44;;;;;;;2.05;1.10;;;;;;;;;;5004627;28;20407;-74
2022/07/10 08:32:10;;;;;;;4.88;1.25;;;;;;;;;;5008808;28;20395;-75
2022/07/10 08:34:37;;;;;;;2.88;1.25;;;;;;;;;;5004410;28;20044;-75
2022/07/10 08:37:03;;;;;;;2.30;1.08;;;;;;;;;;5006510;28;20026;-75
2022/07/10 08:39:29;;;;;;;3.45;0.98;;;;;;;;;;5002719;28;20029;-75
2022/07/10 08:41:55;;;;;;;3.92;1.10;;;;;;;;;;5006254;28;20487;-75
2022/07/10 08:44:22;;;;;;;3.25;1.20;;;;;;;;;;5003625;28;20021;-75
2022/07/10 08:46:48;;;;;;;4.57;1.20;;;;;;;;;;5001526;28;20037;-76
2022/07/10 08:49:16;;;;;;;2.17;1.08;;;;;;;;;;5009013;28;20362;-77
2022/07/10 08:51:48;;;;;;;4.57;1.00;;;;;;;;;;5005778;28;20037;-74
2022/07/10 08:54:15;;;;;;;3.38;1.13;;;;;;;;;;4997955;28;20069;-74
2022/07/10 08:56:42;;;;;;;3.17;1.30;;;;;;;;;;5000916;28;20110;-75
2022/07/10 08:59:08;;;;;;;2.92;0.95;;;;;;;;;;5000477;28;20042;-74
2022/07/10 09:01:34;;;;;;;2.88;1.10;;;;;;;;;;5000598;28;20030;-75
2022/07/10 09:04:01;;;;;;;1.20;1.10;;;;;;;;;;4998614;28;20058;-74
2022/07/10 09:06:30;;;;;;;3.92;1.20;;;;;;;;;;4997590;28;20800;-74
2022/07/10 09:09:00;;;;;;;4.43;1.10;;;;;;;;;;4998194;28;20056;-73
2022/07/10 09:11:29;;;;;;;1.73;1.02;;;;;;;;;;4996155;28;20034;-73
2022/07/10 09:13:59;;;;;;;3.50;1.20;;;;;;;;;;4998941;28;20773;-74
2022/07/10 09:16:26;;;;;;;1.67;1.00;;;;;;;;;;4999997;28;20056;-73
2022/07/10 09:18:52;;;;;;;4.88;1.20;;;;;;;;;;5002371;28;20112;-74
2022/07/10 09:21:18;;;;;;;2.15;1.23;;;;;;;;;;5007493;28;20829;-74
2022/07/10 09:23:45;;;;;;;4.85;1.10;;;;;;;;;;5002330;28;20050;-73
2022/07/10 09:26:12;;;;;;;3.97;1.30;;;;;;;;;;5000679;28;20058;-73
2022/07/10 09:28:38;;;;;;;3.13;1.27;;;;;;;;;;5004628;28;20068;-73
2022/07/10 09:31:04;;;;;;;2.88;1.38;;;;;;;;;;5003522;28;20039;-74
2022/07/10 09:33:31;;;;;;;1.73;1.10;;;;;;;;;;5005005;28;20026;-74
2022/07/10 09:36:07;;;;;;;4.95;1.23;;;;;;;;;;5007668;28;20046;-74
2022/07/10 09:38:54;;;;;;;3.45;1.20;;;;;;;;;;5002111;28;20381;-74
2022/07/10 09:41:21;;;;;;;2.60;1.10;;;;;;;;;;5004824;28;20038;-74
2022/07/10 09:43:48;;;;;;;1.70;1.00;;;;;;;;;;5005052;28;20815;-74
2022/07/10 09:46:15;;;;;;;3.00;1.10;;;;;;;;;;5006108;28;20029;-74
2022/07/10 09:48:41;;;;;;;2.08;1.00;;;;;;;;;;5005262;28;20406;-75
2022/07/10 09:51:11;;;;;;;3.80;1.65;;;;;;;;;;5002245;28;20124;-74
2022/07/10 09:53:41;;;;;;;3.45;1.13;;;;;;;;;;5002486;28;20033;-74
2022/07/10 09:56:11;;;;;;;2.58;1.25;;;;;;;;;;5007211;28;20045;-74
2022/07/10 09:58:38;;;;;;;3.45;1.05;;;;;;;;;;5000836;28;20088;-74
2022/07/10 10:01:08;;;;;;;2.67;1.10;;;;;;;;;;5007905;28;20137;-74
2022/07/10 10:03:35;;;;;;;3.85;1.10;;;;;;;;;;5001978;28;20382;-75
2022/07/10 10:06:04;;;;;;;3.60;1.20;;;;;;;;;;5000997;28;20033;-74
2022/07/10 10:08:37;;;;;;;4.10;1.10;;;;;;;;;;4996170;28;20030;-74
2022/07/10 10:11:05;;;;;;;1.80;1.20;;;;;;;;;;5002505;28;20029;-72
2022/07/10 10:13:31;;;;;;;1.20;1.00;;;;;;;;;;5002527;28;20049;-73
2022/07/10 10:15:57;;;;;;;1.92;1.20;;;;;;;;;;5002556;28;20042;-75
2022/07/10 10:18:24;;;;;;;1.52;1.00;;;;;;;;;;5003321;28;20026;-73
2022/07/10 10:20:52;;;;;;;1.95;0.80;;;;;;;;;;5001833;28;20033;-75
2022/07/10 10:23:21;;;;;;;2.33;1.10;;;;;;;;;;5001634;28;20026;-74
2022/07/10 10:25:52;;;;;;;3.30;1.17;;;;;;;;;;4999206;28;20602;-73
2022/07/10 10:28:26;;;;;;;1.27;1.10;;;;;;;;;;5002855;28;20631;-76
2022/07/10 10:30:53;;;;;;;4.15;1.30;;;;;;;;;;4995503;28;20033;-73
2022/07/10 10:33:32;;;;;;;3.65;1.40;;;;;;;;;;5005697;28;20033;-73
2022/07/10 10:36:02;;;;;;;2.75;1.60;;;;;;;;;;5000591;28;20509;-73
2022/07/10 10:38:46;;;;;;;3.78;1.77;;;;;;;;;;5005844;28;20077;-74
2022/07/10 10:41:29;;;;;;;5.20;1.83;;;;;;;;;;4999959;28;20109;-75
2022/07/10 10:44:13;;;;;;;3.53;2.00;;;;;;;;;;5001619;28;20040;-74
2022/07/10 10:46:56;;;;;;;7.57;3.47;;;;;;;;;;5005058;28;20041;-75
2022/07/10 10:49:24;;;;;;;4.47;1.80;;;;;;;;;;5005924;28;20025;-74
2022/07/10 10:51:53;;;;;;;3.10;2.15;;;;;;;;;;5007994;28;20041;-74
2022/07/10 10:54:19;;;;;;;3.45;1.73;;;;;;;;;;5003888;28;20037;-74
2022/07/10 10:56:45;;;;;;;5.30;2.10;;;;;;;;;;5003011;28;20091;-74
2022/07/10 10:59:31;;;;;;;4.63;2.03;;;;;;;;;;5009190;28;20037;-73
2022/07/10 11:02:22;;;;;;;6.43;1.98;;;;;;;;;;5013774;28;20138;-74
2022/07/10 11:04:49;;;;;;;3.88;2.00;;;;;;;;;;4996739;28;20026;-77
2022/07/10 11:07:35;;;;;;;3.28;1.85;;;;;;;;;;5007654;28;20038;-76
2022/07/10 11:10:20;;;;;;;3.80;2.08;;;;;;;;;;5014477;28;20029;-78
2022/07/10 11:13:05;;;;;;;3.17;2.10;;;;;;;;;;5020426;28;20033;-78
2022/07/10 11:15:36;;;;;;;5.32;1.95;;;;;;;;;;5022625;28;20037;-76
2022/07/10 11:18:05;;;;;;;5.32;2.30;;;;;;;;;;5001187;28;20033;-78
2022/07/10 11:20:50;;;;;;;3.95;1.90;;;;;;;;;;5004548;28;20044;-77
2022/07/10 11:23:35;;;;;;;9.93;2.35;;;;;;;;;;4999859;28;20021;-75
2022/07/10 11:26:09;;;;;;;5.63;2.00;;;;;;;;;;5000922;28;20036;-73
2022/07/10 11:29:02;;;;;;;4.18;2.20;;;;;;;;;;4997043;28;20025;-75
2022/07/10 11:31:31;;;;;;;4.53;2.25;;;;;;;;;;4996068;28;20068;-76
2022/07/10 11:33:57;;;;;;;18.40;4.65;;;;;;;;;;5008917;28;20061;-74
2022/07/10 11:36:34;;;;;;;11.63;2.85;;;;;;;;;;5003445;28;20099;-74
2022/07/10 11:39:01;;;;;;;5.40;2.72;;;;;;;;;;5002379;28;20030;-74
2022/07/10 11:41:27;;;;;;;2.80;2.20;;;;;;;;;;5000627;28;20398;-74
2022/07/10 11:43:55;;;;;;;5.88;2.42;;;;;;;;;;5005689;28;20493;-74
2022/07/10 11:46:22;;;;;;;5.55;2.40;;;;;;;;;;4987245;28;20045;-74
2022/07/10 11:48:58;;;;;;;5.70;2.60;;;;;;;;;;4999432;28;20029;-73
2022/07/10 11:51:31;;;;;;;10.43;2.80;;;;;;;;;;4998521;28;20053;-75
2022/07/10 11:54:03;;;;;;;6.85;2.83;;;;;;;;;;4995360;28;20041;-74
2022/07/10 11:56:34;;;;;;;6.80;2.65;;;;;;;;;;4993109;28;20034;-75
2022/07/10 11:59:04;;;;;;;5.30;2.00;;;;;;;;;;4997528;28;20054;-75
2022/07/10 12:01:35;;;;;;;6.70;1.90;;;;;;;;;;4998889;28;20052;-75
2022/07/10 12:04:02;;;;;;;4.43;1.83;;;;;;;;;;4997820;28;20030;-75
2022/07/10 12:06:29;;;;;;;4.53;1.92;;;;;;;;;;4998127;28;20041;-75
2022/07/10 12:08:55;;;;;;;3.50;2.03;;;;;;;;;;4997038;28;20034;-74
2022/07/10 12:11:23;;;;;;;2.92;1.60;;;;;;;;;;4997596;28;20026;-74
2022/07/10 12:13:51;;;;;;;3.22;2.10;;;;;;;;;;4988707;28;20033;-74
2022/07/10 12:16:17;;;;;;;3.22;1.75;;;;;;;;;;4995035;28;20041;-74
2022/07/10 12:18:44;;;;;;;4.30;1.90;;;;;;;;;;4998475;28;20028;-74
2022/07/10 12:21:12;;;;;;;5.05;1.80;;;;;;;;;;4997057;28;20105;-75
2022/07/10 12:23:41;;;;;;;4.00;1.80;;;;;;;;;;4998278;28;20072;-74
2022/07/10 12:26:10;;;;;;;2.60;1.58;;;;;;;;;;4998760;28;20105;-74
2022/07/10 12:28:53;;;;;;;6.80;1.98;;;;;;;;;;4993232;28;20026;-74
2022/07/10 12:31:31;;;;;;;3.10;1.70;;;;;;;;;;4994936;28;20025;-74
2022/07/10 12:34:01;;;;;;;3.38;2.15;;;;;;;;;;4997452;28;20048;-74
2022/07/10 12:36:27;;;;;;;3.90;1.80;;;;;;;;;;4999703;28;20112;-74
2022/07/10 12:38:55;;;;;;;4.18;2.00;;;;;;;;;;5000516;28;20026;-74
2022/07/10 12:41:24;;;;;;;3.80;1.65;;;;;;;;;;4996765;28;20037;-74
2022/07/10 12:43:51;;;;;;;2.30;2.08;;;;;;;;;;4997318;28;20488;-75
2022/07/10 12:46:21;;;;;;;6.28;2.08;;;;;;;;;;4998408;28;20176;-74
2022/07/10 12:49:07;;;;;;;2.93;1.40;;;;;;;;;;4998490;28;20073;-76
2022/07/10 12:51:34;;;;;;;4.22;1.50;;;;;;;;;;4997679;28;20355;-75
2022/07/10 12:54:00;;;;;;;4.50;1.95;;;;;;;;;;5002425;28;20498;-74
2022/07/10 12:56:34;;;;;;;1.90;1.52;;;;;;;;;;5001608;28;20066;-74
2022/07/10 12:59:01;;;;;;;2.05;1.58;;;;;;;;;;5000289;28;20033;-75
2022/07/10 13:01:41;;;;;;;3.95;1.70;;;;;;;;;;5002620;28;20021;-75
2022/07/10 13:04:08;;;;;;;4.43;1.92;;;;;;;;;;5001481;28;20022;-75
2022/07/10 13:06:35;;;;;;;2.55;1.52;;;;;;;;;;5002288;28;20026;-76
2022/07/10 13:09:02;;;;;;;5.28;2.08;;;;;;;;;;5001452;28;20033;-76
2022/07/10 13:11:29;;;;;;;4.22;1.50;;;;;;;;;;4999858;28;20025;-74
2022/07/10 13:13:55;;;;;;;2.30;1.70;;;;;;;;;;5002507;28;20030;-76
2022/07/10 13:16:24;;;;;;;3.63;1.88;;;;;;;;;;5000076;28;20038;-79
2022/07/10 13:18:50;;;;;;;4.90;2.00;;;;;;;;;;5002150;28;20810;-76
2022/07/10 13:21:17;;;;;;;5.03;1.60;;;;;;;;;;5009213;28;20755;-74
2022/07/10 13:23:43;;;;;;;2.10;1.90;;;;;;;;;;5000153;28;20022;-76
2022/07/10 13:26:10;;;;;;;3.53;1.80;;;;;;;;;;5001429;28;20088;-74
2022/07/10 13:28:36;;;;;;;3.78;1.70;;;;;;;;;;5002397;28;20038;-74
2022/07/10 13:31:03;;;;;;;2.95;1.42;;;;;;;;;;5003392;28;20088;-75
2022/07/10 13:33:29;;;;;;;4.00;1.50;;;;;;;;;;5006964;28;20033;-76
2022/07/10 13:35:55;;;;;;;4.72;1.50;;;;;;;;;;4999506;28;20046;-75
2022/07/10 13:38:23;;;;;;;4.05;1.70;;;;;;;;;;5006866;28;20033;-75
2022/07/10 13:40:49;;;;;;;4.32;1.77;;;;;;;;;;5001715;28;20068;-77
2022/07/10 13:43:20;;;;;;;7.45;1.80;;;;;;;;;;5006756;28;20196;-76
2022/07/10 13:45:47;;;;;;;2.85;1.80;;;;;;;;;;4993891;28;20138;-74
2022/07/10 13:48:14;;;;;;;3.17;1.85;;;;;;;;;;5005668;28;20635;-76
2022/07/10 13:50:40;;;;;;;3.55;2.13;;;;;;;;;;5002198;28;20033;-76
2022/07/10 13:53:07;;;;;;;4.47;1.98;;;;;;;;;;5004516;28;20036;-75
2022/07/10 13:55:36;;;;;;;4.60;2.10;;;;;;;;;;5002070;28;20041;-76
2022/07/10 13:58:02;;;;;;;3.65;1.73;;;;;;;;;;4998539;28;20398;-75
2022/07/10 14:00:29;;;;;;;4.65;1.80;;;;;;;;;;5006395;28;20056;-74
2022/07/10 14:02:57;;;;;;;4.72;1.95;;;;;;;;;;5002479;28;20034;-76
2022/07/10 14:05:23;;;;;;;2.13;1.77;;;;;;;;;;5005608;28;20026;-76
2022/07/10 14:07:50;;;;;;;4.15;1.73;;;;;;;;;;5010252;28;20041;-76
2022/07/10 14:10:16;;;;;;;2.53;1.60;;;;;;;;;;5000549;28;20109;-75
2022/07/10 14:12:42;;;;;;;2.85;1.70;;;;;;;;;;5008826;28;20034;-75
2022/07/10 14:15:09;;;;;;;5.18;1.90;;;;;;;;;;5002388;28;20053;-76
2022/07/10 14:17:36;;;;;;;4.40;1.67;;;;;;;;;;5000857;28;20091;-76
2022/07/10 14:20:02;;;;;;;5.40;2.03;;;;;;;;;;5008896;28;20037;-75
2022/07/10 14:22:28;;;;;;;4.60;2.10;;;;;;;;;;5001195;28;20041;-76
2022/07/10 14:24:56;;;;;;;3.17;1.88;;;;;;;;;;5000394;28;20437;-75
2022/07/10 14:27:26;;;;;;;4.13;1.70;;;;;;;;;;5001687;28;20033;-76
2022/07/10 14:29:53;;;;;;;2.72;1.50;;;;;;;;;;5003508;28;20577;-75
2022/07/10 14:32:19;;;;;;;5.07;2.03;;;;;;;;;;5004343;28;20513;-77
2022/07/10 14:34:45;;;;;;;5.78;2.00;;;;;;;;;;5004157;28;20187;-76
2022/07/10 14:37:11;;;;;;;4.10;1.83;;;;;;;;;;4999968;28;20140;-79
2022/07/10 14:39:38;;;;;;;3.83;2.10;;;;;;;;;;5001019;28;20029;-77
2022/07/10 14:42:09;;;;;;;3.92;1.80;;;;;;;;;;5004375;28;20069;-79
2022/07/10 14:44:35;;;;;;;4.00;2.00;;;;;;;;;;5000455;28;20067;-77
2022/07/10 14:47:01;;;;;;;4.00;1.98;;;;;;;;;;5008181;28;20029;-76
2022/07/10 14:49:27;;;;;;;4.22;1.90;;;;;;;;;;5006412;28;20038;-78
2022/07/10 14:51:54;;;;;;;4.82;2.33;;;;;;;;;;5005429;28;20026;-76